sensor_id;sensor_type;location;lat;lon;timestamp;pressure;altitude;pressure_sealevel;temperature;humidity
57801;BME280;43627;42.728;23.256;2023-02-28T00:00:19;95424.69;;;5.07;100.00
57801;BME280;43627;42.728;23.256;2023-02-28T00:02:46;95438.50;;;5.12;100.00
57801;BME280;43627;42.728;23.256;2023-02-28T00:05:15;95439.94;;;4.97;100.00
57801;BME280;43627;42.728;23.256;2023-02-28T00:07:42;95437.63;;;4.96;100.00
57801;BME280;43627;42.728;23.256;2023-02-28T00:10:12;95435.59;;;4.80;100.00
57801;BME280;43627;42.728;23.256;2023-02-28T00:12:40;95425.63;;;4.77;100.00
57801;BME280;43627;42.728;23.256;2023-02-28T00:15:10;95467.47;;;4.88;100.00
57801;BME280;43627;42.728;23.256;2023-02-28T00:17:37;95464.78;;;5.12;100.00
57801;BME280;43627;42.728;23.256;2023-02-28T00:20:05;95461.44;;;5.04;100.00
57801;BME280;43627;42.728;23.256;2023-02-28T00:22:38;95465.78;;;4.98;100.00
57801;BME280;43627;42.728;23.256;2023-02-28T00:25:05;95445.75;;;4.72;100.00
57801;BME280;43627;42.728;23.256;2023-02-28T00:27:34;95442.88;;;4.59;100.00
57801;BME280;43627;42.728;23.256;2023-02-28T00:30:01;95445.69;;;4.52;100.00
57801;BME280;43627;42.728;23.256;2023-02-28T00:32:28;95471.84;;;4.59;100.00
57801;BME280;43627;42.728;23.256;2023-02-28T00:34:54;95485.56;;;4.68;100.00
57801;BME280;43627;42.728;23.256;2023-02-28T00:37:21;95474.22;;;4.53;100.00
57801;BME280;43627;42.728;23.256;2023-02-28T00:39:48;95479.28;;;4.51;100.00
57801;BME280;43627;42.728;23.256;2023-02-28T00:42:15;95479.13;;;4.35;100.00
57801;BME280;43627;42.728;23.256;2023-02-28T00:44:42;95483.00;;;4.34;100.00
57801;BME280;43627;42.728;23.256;2023-02-28T00:47:08;95479.84;;;4.39;100.00
57801;BME280;43627;42.728;23.256;2023-02-28T00:49:35;95455.75;;;4.25;100.00
57801;BME280;43627;42.728;23.256;2023-02-28T00:52:02;95472.63;;;4.33;100.00
57801;BME280;43627;42.728;23.256;2023-02-28T00:54:29;95471.19;;;4.24;100.00
57801;BME280;43627;42.728;23.256;2023-02-28T00:56:55;95458.19;;;4.16;100.00
57801;BME280;43627;42.728;23.256;2023-02-28T00:59:22;95453.03;;;4.01;100.00
57801;BME280;43627;42.728;23.256;2023-02-28T01:01:49;95457.16;;;4.10;100.00
57801;BME280;43627;42.728;23.256;2023-02-28T01:04:15;95467.97;;;4.33;100.00
57801;BME280;43627;42.728;23.256;2023-02-28T01:06:43;95460.28;;;4.32;100.00
57801;BME280;43627;42.728;23.256;2023-02-28T01:09:10;95458.09;;;4.23;100.00
57801;BME280;43627;42.728;23.256;2023-02-28T01:11:37;95459.97;;;4.26;100.00
57801;BME280;43627;42.728;23.256;2023-02-28T01:14:03;95447.31;;;4.23;100.00
57801;BME280;43627;42.728;23.256;2023-02-28T01:16:30;95467.22;;;4.33;100.00
57801;BME280;43627;42.728;23.256;2023-02-28T01:18:57;95447.22;;;4.30;100.00
57801;BME280;43627;42.728;23.256;2023-02-28T01:21:24;95445.69;;;4.29;100.00
57801;BME280;43627;42.728;23.256;2023-02-28T01:23:51;95464.00;;;4.41;100.00
57801;BME280;43627;42.728;23.256;2023-02-28T01:26:20;95433.22;;;4.35;100.00
57801;BME280;43627;42.728;23.256;2023-02-28T01:28:49;95456.66;;;4.42;100.00
57801;BME280;43627;42.728;23.256;2023-02-28T01:31:16;95474.34;;;4.46;100.00
57801;BME280;43627;42.728;23.256;2023-02-28T01:33:44;95468.44;;;4.55;100.00
57801;BME280;43627;42.728;23.256;2023-02-28T01:36:15;95464.25;;;4.50;100.00
57801;BME280;43627;42.728;23.256;2023-02-28T01:38:43;95460.72;;;4.53;100.00
57801;BME280;43627;42.728;23.256;2023-02-28T01:41:19;95461.44;;;4.57;100.00
57801;BME280;43627;42.728;23.256;2023-02-28T01:46:13;95454.44;;;4.60;100.00
57801;BME280;43627;42.728;23.256;2023-02-28T01:48:46;95466.50;;;4.55;100.00
57801;BME280;43627;42.728;23.256;2023-02-28T01:51:21;95465.31;;;4.56;100.00
57801;BME280;43627;42.728;23.256;2023-02-28T01:53:53;95465.94;;;4.64;100.00
57801;BME280;43627;42.728;23.256;2023-02-28T01:56:24;95453.78;;;4.52;100.00
57801;BME280;43627;42.728;23.256;2023-02-28T01:58:53;95463.13;;;4.48;100.00
57801;BME280;43627;42.728;23.256;2023-02-28T02:01:21;95456.25;;;4.43;100.00
57801;BME280;43627;42.728;23.256;2023-02-28T02:03:52;95467.41;;;4.45;100.00
57801;BME280;43627;42.728;23.256;2023-02-28T02:06:27;95454.28;;;4.47;100.00
57801;BME280;43627;42.728;23.256;2023-02-28T02:08:55;95468.06;;;4.26;100.00
57801;BME280;43627;42.728;23.256;2023-02-28T02:11:23;95450.94;;;4.13;100.00
57801;BME280;43627;42.728;23.256;2023-02-28T02:13:58;95464.22;;;4.27;100.00
57801;BME280;43627;42.728;23.256;2023-02-28T02:39:00;95425.13;;;4.12;100.00
57801;BME280;43627;42.728;23.256;2023-02-28T02:41:55;95434.53;;;4.00;100.00
57801;BME280;43627;42.728;23.256;2023-02-28T02:44:29;95463.09;;;4.24;100.00
57801;BME280;43627;42.728;23.256;2023-02-28T02:47:02;95465.78;;;4.24;100.00
57801;BME280;43627;42.728;23.256;2023-02-28T02:49:32;95386.88;;;3.63;100.00
57801;BME280;43627;42.728;23.256;2023-02-28T02:52:03;95454.09;;;4.08;100.00
57801;BME280;43627;42.728;23.256;2023-02-28T02:54:33;95467.28;;;4.29;100.00
57801;BME280;43627;42.728;23.256;2023-02-28T02:57:07;95459.63;;;4.24;100.00
57801;BME280;43627;42.728;23.256;2023-02-28T02:59:36;95464.88;;;4.35;100.00
57801;BME280;43627;42.728;23.256;2023-02-28T03:02:07;95448.31;;;4.33;100.00
57801;BME280;43627;42.728;23.256;2023-02-28T03:04:40;95462.38;;;4.47;100.00
57801;BME280;43627;42.728;23.256;2023-02-28T03:07:08;95473.78;;;4.58;100.00
57801;BME280;43627;42.728;23.256;2023-02-28T03:09:35;95459.72;;;4.44;100.00
57801;BME280;43627;42.728;23.256;2023-02-28T03:12:03;95459.69;;;4.47;100.00
57801;BME280;43627;42.728;23.256;2023-02-28T03:14:52;95454.72;;;4.42;100.00
57801;BME280;43627;42.728;23.256;2023-02-28T03:22:49;95505.13;;;4.76;100.00
57801;BME280;43627;42.728;23.256;2023-02-28T03:31:19;95494.50;;;4.65;100.00
57801;BME280;43627;42.728;23.256;2023-02-28T03:33:53;95470.00;;;4.52;100.00
57801;BME280;43627;42.728;23.256;2023-02-28T03:36:27;95514.94;;;4.90;100.00
57801;BME280;43627;42.728;23.256;2023-02-28T03:39:00;95513.06;;;4.86;100.00
57801;BME280;43627;42.728;23.256;2023-02-28T03:41:49;95514.00;;;4.76;100.00
57801;BME280;43627;42.728;23.256;2023-02-28T03:44:25;95512.91;;;4.74;100.00
57801;BME280;43627;42.728;23.256;2023-02-28T03:47:03;95511.25;;;4.80;100.00
57801;BME280;43627;42.728;23.256;2023-02-28T03:49:45;95516.13;;;4.88;100.00
57801;BME280;43627;42.728;23.256;2023-02-28T03:52:14;95505.50;;;4.78;100.00
57801;BME280;43627;42.728;23.256;2023-02-28T03:54:45;95500.00;;;4.81;100.00
57801;BME280;43627;42.728;23.256;2023-02-28T03:57:40;95518.47;;;5.10;100.00
57801;BME280;43627;42.728;23.256;2023-02-28T04:00:14;95521.22;;;5.06;100.00
57801;BME280;43627;42.728;23.256;2023-02-28T04:02:42;95496.97;;;4.79;100.00
57801;BME280;43627;42.728;23.256;2023-02-28T04:05:08;95538.31;;;5.00;100.00
57801;BME280;43627;42.728;23.256;2023-02-28T04:07:35;95504.72;;;4.77;100.00
57801;BME280;43627;42.728;23.256;2023-02-28T04:10:03;95519.22;;;4.87;100.00
57801;BME280;43627;42.728;23.256;2023-02-28T04:12:30;95494.00;;;4.74;100.00
57801;BME280;43627;42.728;23.256;2023-02-28T04:14:56;95520.31;;;4.93;100.00
57801;BME280;43627;42.728;23.256;2023-02-28T04:17:23;95527.81;;;5.05;100.00
57801;BME280;43627;42.728;23.256;2023-02-28T04:19:49;95531.97;;;5.10;100.00
57801;BME280;43627;42.728;23.256;2023-02-28T04:22:16;95529.28;;;5.10;100.00
57801;BME280;43627;42.728;23.256;2023-02-28T04:24:44;95512.19;;;4.93;100.00
57801;BME280;43627;42.728;23.256;2023-02-28T04:27:11;95519.75;;;4.78;100.00
57801;BME280;43627;42.728;23.256;2023-02-28T04:29:37;95527.00;;;4.85;100.00
57801;BME280;43627;42.728;23.256;2023-02-28T04:32:04;95526.69;;;4.79;100.00
57801;BME280;43627;42.728;23.256;2023-02-28T04:34:32;95516.28;;;4.78;100.00
57801;BME280;43627;42.728;23.256;2023-02-28T04:36:59;95529.69;;;4.85;100.00
57801;BME280;43627;42.728;23.256;2023-02-28T04:39:43;95515.34;;;4.65;100.00
57801;BME280;43627;42.728;23.256;2023-02-28T04:42:11;95481.31;;;4.44;100.00
57801;BME280;43627;42.728;23.256;2023-02-28T04:44:38;95535.31;;;4.71;100.00
57801;BME280;43627;42.728;23.256;2023-02-28T04:47:04;95531.59;;;4.61;100.00
57801;BME280;43627;42.728;23.256;2023-02-28T04:49:32;95526.16;;;4.65;100.00
57801;BME280;43627;42.728;23.256;2023-02-28T04:51:58;95525.34;;;4.68;100.00
57801;BME280;43627;42.728;23.256;2023-02-28T04:54:25;95533.09;;;4.66;100.00
57801;BME280;43627;42.728;23.256;2023-02-28T04:56:52;95529.97;;;4.67;100.00
57801;BME280;43627;42.728;23.256;2023-02-28T04:59:18;95552.53;;;4.80;100.00
57801;BME280;43627;42.728;23.256;2023-02-28T05:01:47;95552.00;;;4.89;100.00
57801;BME280;43627;42.728;23.256;2023-02-28T05:04:15;95542.81;;;4.83;100.00
57801;BME280;43627;42.728;23.256;2023-02-28T05:06:41;95549.97;;;4.97;100.00
57801;BME280;43627;42.728;23.256;2023-02-28T05:09:08;95540.06;;;5.10;100.00
57801;BME280;43627;42.728;23.256;2023-02-28T05:11:38;95554.22;;;5.21;100.00
57801;BME280;43627;42.728;23.256;2023-02-28T05:14:10;95521.69;;;5.01;100.00
57801;BME280;43627;42.728;23.256;2023-02-28T05:16:37;95553.78;;;5.23;100.00
57801;BME280;43627;42.728;23.256;2023-02-28T05:19:04;95557.59;;;5.25;100.00
57801;BME280;43627;42.728;23.256;2023-02-28T05:21:34;95548.25;;;5.06;100.00
57801;BME280;43627;42.728;23.256;2023-02-28T05:24:04;95568.25;;;5.12;100.00
57801;BME280;43627;42.728;23.256;2023-02-28T05:26:34;95563.41;;;5.24;100.00
57801;BME280;43627;42.728;23.256;2023-02-28T05:29:01;95546.38;;;5.03;100.00
57801;BME280;43627;42.728;23.256;2023-02-28T05:31:28;95558.38;;;5.02;100.00
57801;BME280;43627;42.728;23.256;2023-02-28T05:33:55;95574.00;;;5.14;100.00
57801;BME280;43627;42.728;23.256;2023-02-28T05:36:22;95507.75;;;4.56;100.00
57801;BME280;43627;42.728;23.256;2023-02-28T05:38:50;95555.13;;;4.87;100.00
57801;BME280;43627;42.728;23.256;2023-02-28T05:41:19;95516.22;;;4.58;100.00
57801;BME280;43627;42.728;23.256;2023-02-28T05:43:47;95577.41;;;4.95;100.00
57801;BME280;43627;42.728;23.256;2023-02-28T05:46:17;95575.13;;;4.94;100.00
57801;BME280;43627;42.728;23.256;2023-02-28T05:48:47;95495.63;;;4.41;100.00
57801;BME280;43627;42.728;23.256;2023-02-28T05:51:15;95507.00;;;4.55;100.00
57801;BME280;43627;42.728;23.256;2023-02-28T05:53:42;95502.50;;;4.45;100.00
57801;BME280;43627;42.728;23.256;2023-02-28T05:56:09;95580.22;;;5.11;100.00
57801;BME280;43627;42.728;23.256;2023-02-28T05:58:36;95557.72;;;4.95;100.00
57801;BME280;43627;42.728;23.256;2023-02-28T06:03:48;95587.56;;;5.34;100.00
57801;BME280;43627;42.728;23.256;2023-02-28T06:06:15;95576.94;;;5.24;100.00
57801;BME280;43627;42.728;23.256;2023-02-28T06:08:42;95573.41;;;5.27;100.00
57801;BME280;43627;42.728;23.256;2023-02-28T06:11:11;95580.00;;;5.26;100.00
57801;BME280;43627;42.728;23.256;2023-02-28T06:13:38;95526.41;;;4.97;100.00
57801;BME280;43627;42.728;23.256;2023-02-28T06:16:05;95536.88;;;4.95;100.00
57801;BME280;43627;42.728;23.256;2023-02-28T06:18:32;95514.06;;;4.96;100.00
57801;BME280;43627;42.728;23.256;2023-02-28T06:20:59;95537.44;;;5.06;100.00
57801;BME280;43627;42.728;23.256;2023-02-28T06:23:26;95597.47;;;5.64;100.00
57801;BME280;43627;42.728;23.256;2023-02-28T06:25:52;95603.09;;;5.54;100.00
57801;BME280;43627;42.728;23.256;2023-02-28T06:28:19;95527.75;;;5.09;100.00
57801;BME280;43627;42.728;23.256;2023-02-28T06:30:46;95598.72;;;5.60;100.00
57801;BME280;43627;42.728;23.256;2023-02-28T06:33:13;95548.06;;;5.17;100.00
57801;BME280;43627;42.728;23.256;2023-02-28T06:35:44;95565.06;;;5.18;100.00
57801;BME280;43627;42.728;23.256;2023-02-28T06:38:11;95531.44;;;5.19;100.00
57801;BME280;43627;42.728;23.256;2023-02-28T06:40:38;95619.00;;;5.71;100.00
57801;BME280;43627;42.728;23.256;2023-02-28T06:43:04;95592.19;;;5.57;100.00
57801;BME280;43627;42.728;23.256;2023-02-28T06:45:31;95572.97;;;5.52;100.00
57801;BME280;43627;42.728;23.256;2023-02-28T06:47:58;95592.97;;;5.78;100.00
57801;BME280;43627;42.728;23.256;2023-02-28T06:50:26;95593.28;;;5.83;100.00
57801;BME280;43627;42.728;23.256;2023-02-28T06:52:56;95532.66;;;5.37;100.00
57801;BME280;43627;42.728;23.256;2023-02-28T06:55:22;95557.97;;;5.70;100.00
57801;BME280;43627;42.728;23.256;2023-02-28T06:57:49;95624.34;;;6.18;100.00
57801;BME280;43627;42.728;23.256;2023-02-28T07:00:17;95612.34;;;6.19;100.00
57801;BME280;43627;42.728;23.256;2023-02-28T07:02:43;95564.16;;;5.91;100.00
57801;BME280;43627;42.728;23.256;2023-02-28T07:05:11;95621.84;;;6.27;100.00
57801;BME280;43627;42.728;23.256;2023-02-28T07:07:37;95619.81;;;6.32;100.00
57801;BME280;43627;42.728;23.256;2023-02-28T07:10:07;95624.06;;;6.33;100.00
57801;BME280;43627;42.728;23.256;2023-02-28T07:12:34;95604.00;;;6.30;100.00
57801;BME280;43627;42.728;23.256;2023-02-28T07:15:04;95615.59;;;6.30;100.00
57801;BME280;43627;42.728;23.256;2023-02-28T07:17:31;95571.78;;;6.16;100.00
57801;BME280;43627;42.728;23.256;2023-02-28T07:19:57;95572.69;;;5.89;100.00
57801;BME280;43627;42.728;23.256;2023-02-28T07:22:24;95625.53;;;6.17;100.00
57801;BME280;43627;42.728;23.256;2023-02-28T07:24:51;95564.38;;;5.77;100.00
57801;BME280;43627;42.728;23.256;2023-02-28T07:27:18;95583.97;;;5.84;100.00
57801;BME280;43627;42.728;23.256;2023-02-28T07:29:50;95576.94;;;5.67;100.00
57801;BME280;43627;42.728;23.256;2023-02-28T07:32:16;95615.25;;;6.09;100.00
57801;BME280;43627;42.728;23.256;2023-02-28T07:34:44;95619.47;;;6.10;100.00
57801;BME280;43627;42.728;23.256;2023-02-28T07:37:11;95553.13;;;5.58;100.00
57801;BME280;43627;42.728;23.256;2023-02-28T07:39:37;95600.53;;;6.10;100.00
57801;BME280;43627;42.728;23.256;2023-02-28T07:42:05;95624.00;;;6.16;100.00
57801;BME280;43627;42.728;23.256;2023-02-28T07:44:33;95626.63;;;6.20;100.00
57801;BME280;43627;42.728;23.256;2023-02-28T07:46:59;95576.16;;;5.90;100.00
57801;BME280;43627;42.728;23.256;2023-02-28T07:49:26;95591.03;;;6.01;100.00
57801;BME280;43627;42.728;23.256;2023-02-28T07:51:53;95602.47;;;6.29;100.00
57801;BME280;43627;42.728;23.256;2023-02-28T07:54:20;95583.44;;;6.13;100.00
57801;BME280;43627;42.728;23.256;2023-02-28T07:56:46;95605.81;;;6.37;100.00
57801;BME280;43627;42.728;23.256;2023-02-28T07:59:13;95616.03;;;6.65;100.00
57801;BME280;43627;42.728;23.256;2023-02-28T08:01:40;95560.00;;;6.42;100.00
57801;BME280;43627;42.728;23.256;2023-02-28T08:04:07;95609.63;;;6.75;100.00
57801;BME280;43627;42.728;23.256;2023-02-28T08:06:33;95533.00;;;6.39;100.00
57801;BME280;43627;42.728;23.256;2023-02-28T08:09:00;95553.78;;;6.62;100.00
57801;BME280;43627;42.728;23.256;2023-02-28T08:11:27;95568.28;;;6.71;100.00
57801;BME280;43627;42.728;23.256;2023-02-28T08:13:54;95614.47;;;7.16;100.00
57801;BME280;43627;42.728;23.256;2023-02-28T08:16:21;95544.56;;;6.59;100.00
57801;BME280;43627;42.728;23.256;2023-02-28T08:18:50;95575.31;;;6.85;100.00
57801;BME280;43627;42.728;23.256;2023-02-28T08:21:17;95566.69;;;6.90;100.00
57801;BME280;43627;42.728;23.256;2023-02-28T08:23:47;95563.78;;;6.81;100.00
57801;BME280;43627;42.728;23.256;2023-02-28T08:26:16;95555.00;;;6.77;100.00
57801;BME280;43627;42.728;23.256;2023-02-28T08:28:43;95631.69;;;6.94;100.00
57801;BME280;43627;42.728;23.256;2023-02-28T08:31:13;95596.31;;;6.81;100.00
57801;BME280;43627;42.728;23.256;2023-02-28T08:33:41;95575.72;;;6.67;100.00
57801;BME280;43627;42.728;23.256;2023-02-28T08:36:08;95583.72;;;6.74;100.00
57801;BME280;43627;42.728;23.256;2023-02-28T08:38:36;95583.72;;;6.74;100.00
57801;BME280;43627;42.728;23.256;2023-02-28T08:41:06;95623.72;;;7.03;100.00
57801;BME280;43627;42.728;23.256;2023-02-28T08:43:34;95576.34;;;6.75;100.00
57801;BME280;43627;42.728;23.256;2023-02-28T08:46:01;95626.03;;;7.21;100.00
57801;BME280;43627;42.728;23.256;2023-02-28T08:48:29;95624.81;;;7.05;100.00
57801;BME280;43627;42.728;23.256;2023-02-28T08:53:32;95629.31;;;7.44;100.00
57801;BME280;43627;42.728;23.256;2023-02-28T08:56:01;95582.69;;;7.01;100.00
57801;BME280;43627;42.728;23.256;2023-02-28T08:58:28;95597.69;;;7.05;100.00
57801;BME280;43627;42.728;23.256;2023-02-28T09:00:55;95613.81;;;7.29;100.00
57801;BME280;43627;42.728;23.256;2023-02-28T09:03:23;95574.66;;;7.13;100.00
57801;BME280;43627;42.728;23.256;2023-02-28T09:05:59;95547.09;;;6.99;100.00
57801;BME280;43627;42.728;23.256;2023-02-28T09:08:29;95625.94;;;7.40;100.00
57801;BME280;43627;42.728;23.256;2023-02-28T09:10:57;95570.00;;;7.30;100.00
57801;BME280;43627;42.728;23.256;2023-02-28T09:13:27;95571.00;;;7.36;100.00
57801;BME280;43627;42.728;23.256;2023-02-28T09:15:54;95595.66;;;7.58;100.00
57801;BME280;43627;42.728;23.256;2023-02-28T09:18:21;95576.66;;;7.58;100.00
57801;BME280;43627;42.728;23.256;2023-02-28T09:20:47;95626.34;;;8.00;100.00
57801;BME280;43627;42.728;23.256;2023-02-28T09:23:14;95561.63;;;7.70;100.00
57801;BME280;43627;42.728;23.256;2023-02-28T09:25:49;95610.94;;;8.10;100.00
57801;BME280;43627;42.728;23.256;2023-02-28T09:28:16;95570.75;;;7.76;100.00
57801;BME280;43627;42.728;23.256;2023-02-28T09:30:49;95600.91;;;7.94;100.00
57801;BME280;43627;42.728;23.256;2023-02-28T09:33:17;95564.50;;;7.92;100.00
57801;BME280;43627;42.728;23.256;2023-02-28T09:35:50;95578.78;;;8.09;100.00
57801;BME280;43627;42.728;23.256;2023-02-28T09:38:17;95562.56;;;8.34;100.00
57801;BME280;43627;42.728;23.256;2023-02-28T09:40:49;95599.03;;;8.87;100.00
57801;BME280;43627;42.728;23.256;2023-02-28T09:43:17;95606.97;;;9.07;100.00
57801;BME280;43627;42.728;23.256;2023-02-28T09:45:59;95621.56;;;9.26;100.00
57801;BME280;43627;42.728;23.256;2023-02-28T09:48:33;95605.66;;;9.37;100.00
57801;BME280;43627;42.728;23.256;2023-02-28T09:51:15;95610.50;;;9.55;100.00
57801;BME280;43627;42.728;23.256;2023-02-28T09:53:47;95560.47;;;9.40;100.00
57801;BME280;43627;42.728;23.256;2023-02-28T09:56:25;95608.28;;;9.76;100.00
57801;BME280;43627;42.728;23.256;2023-02-28T09:59:00;95603.03;;;9.81;100.00
57801;BME280;43627;42.728;23.256;2023-02-28T10:01:37;95599.69;;;9.77;100.00
57801;BME280;43627;42.728;23.256;2023-02-28T10:07:03;95558.03;;;9.89;100.00
57801;BME280;43627;42.728;23.256;2023-02-28T10:09:34;95591.25;;;10.41;100.00
57801;BME280;43627;42.728;23.256;2023-02-28T10:12:06;95530.03;;;9.89;100.00
57801;BME280;43627;42.728;23.256;2023-02-28T10:14:38;95563.22;;;10.18;100.00
57801;BME280;43627;42.728;23.256;2023-02-28T10:17:12;95569.19;;;10.26;100.00
57801;BME280;43627;42.728;23.256;2023-02-28T10:19:59;95565.88;;;10.09;100.00
57801;BME280;43627;42.728;23.256;2023-02-28T10:25:22;95576.16;;;10.49;100.00
57801;BME280;43627;42.728;23.256;2023-02-28T10:27:53;95544.31;;;10.46;100.00
57801;BME280;43627;42.728;23.256;2023-02-28T10:30:20;95559.25;;;11.03;100.00
57801;BME280;43627;42.728;23.256;2023-02-28T10:32:51;95554.25;;;11.02;100.00
57801;BME280;43627;42.728;23.256;2023-02-28T10:35:25;95498.69;;;10.77;100.00
57801;BME280;43627;42.728;23.256;2023-02-28T10:37:59;95499.81;;;10.98;100.00
57801;BME280;43627;42.728;23.256;2023-02-28T10:40:33;95549.66;;;10.90;100.00
57801;BME280;43627;42.728;23.256;2023-02-28T10:43:03;95542.03;;;10.75;100.00
57801;BME280;43627;42.728;23.256;2023-02-28T10:45:32;95484.41;;;10.02;100.00
57801;BME280;43627;42.728;23.256;2023-02-28T11:01:24;95507.44;;;10.63;100.00
57801;BME280;43627;42.728;23.256;2023-02-28T11:03:52;95444.84;;;10.19;100.00
57801;BME280;43627;42.728;23.256;2023-02-28T11:06:22;95488.97;;;10.67;100.00
57801;BME280;43627;42.728;23.256;2023-02-28T11:08:52;95466.84;;;10.25;100.00
57801;BME280;43627;42.728;23.256;2023-02-28T11:11:22;95490.81;;;10.39;100.00
57801;BME280;43627;42.728;23.256;2023-02-28T11:14:03;95431.59;;;9.56;100.00
57801;BME280;43627;42.728;23.256;2023-02-28T11:16:35;95484.94;;;9.88;100.00
57801;BME280;43627;42.728;23.256;2023-02-28T11:19:06;95490.50;;;10.06;100.00
57801;BME280;43627;42.728;23.256;2023-02-28T11:22:03;95471.59;;;10.34;100.00
57801;BME280;43627;42.728;23.256;2023-02-28T11:24:35;95495.72;;;10.44;100.00
57801;BME280;43627;42.728;23.256;2023-02-28T11:27:06;95445.81;;;10.25;100.00
57801;BME280;43627;42.728;23.256;2023-02-28T11:29:33;95422.28;;;10.19;100.00
57801;BME280;43627;42.728;23.256;2023-02-28T11:32:03;95472.56;;;10.58;100.00
57801;BME280;43627;42.728;23.256;2023-02-28T11:34:31;95462.56;;;10.55;100.00
57801;BME280;43627;42.728;23.256;2023-02-28T11:36:59;95460.59;;;10.55;100.00
57801;BME280;43627;42.728;23.256;2023-02-28T11:39:27;95448.69;;;10.31;100.00
57801;BME280;43627;42.728;23.256;2023-02-28T11:45:16;95478.22;;;10.64;100.00
57801;BME280;43627;42.728;23.256;2023-02-28T11:51:06;95440.34;;;10.25;100.00
57801;BME280;43627;42.728;23.256;2023-02-28T11:56:47;95456.03;;;10.21;100.00
57801;BME280;43627;42.728;23.256;2023-02-28T11:59:43;95478.41;;;10.38;100.00
57801;BME280;43627;42.728;23.256;2023-02-28T12:05:20;95455.53;;;10.36;100.00
57801;BME280;43627;42.728;23.256;2023-02-28T12:10:51;95404.19;;;10.03;100.00
57801;BME280;43627;42.728;23.256;2023-02-28T12:13:36;95470.41;;;10.44;100.00
57801;BME280;43627;42.728;23.256;2023-02-28T12:19:21;95411.88;;;10.26;100.00
57801;BME280;43627;42.728;23.256;2023-02-28T12:22:12;95412.13;;;10.19;100.00
57801;BME280;43627;42.728;23.256;2023-02-28T12:27:37;95390.13;;;10.36;100.00
57801;BME280;43627;42.728;23.256;2023-02-28T12:30:15;95470.09;;;10.82;100.00
57801;BME280;43627;42.728;23.256;2023-02-28T12:32:46;95464.75;;;10.78;100.00
57801;BME280;43627;42.728;23.256;2023-02-28T12:35:33;95453.84;;;10.78;100.00
57801;BME280;43627;42.728;23.256;2023-02-28T12:38:26;95461.94;;;11.00;100.00
57801;BME280;43627;42.728;23.256;2023-02-28T12:40:58;95448.75;;;11.08;100.00
57801;BME280;43627;42.728;23.256;2023-02-28T12:43:33;95410.06;;;10.73;100.00
57801;BME280;43627;42.728;23.256;2023-02-28T12:46:14;95443.81;;;10.66;100.00
57801;BME280;43627;42.728;23.256;2023-02-28T12:48:52;95358.47;;;9.98;100.00
57801;BME280;43627;42.728;23.256;2023-02-28T12:51:22;95367.97;;;9.93;100.00
57801;BME280;43627;42.728;23.256;2023-02-28T12:57:10;95456.69;;;10.66;100.00
57801;BME280;43627;42.728;23.256;2023-02-28T12:59:54;95418.63;;;10.44;100.00
57801;BME280;43627;42.728;23.256;2023-02-28T13:10:53;95416.69;;;10.22;100.00
57801;BME280;43627;42.728;23.256;2023-02-28T13:14:05;95411.25;;;10.22;100.00
57801;BME280;43627;42.728;23.256;2023-02-28T13:19:46;95438.72;;;10.37;100.00
57801;BME280;43627;42.728;23.256;2023-02-28T13:25:02;95386.66;;;10.13;100.00
57801;BME280;43627;42.728;23.256;2023-02-28T13:27:39;95410.25;;;10.38;100.00
57801;BME280;43627;42.728;23.256;2023-02-28T13:33:36;95439.66;;;10.43;100.00
57801;BME280;43627;42.728;23.256;2023-02-28T13:38:38;95379.69;;;10.12;100.00
57801;BME280;43627;42.728;23.256;2023-02-28T13:44:21;95425.94;;;10.65;100.00
57801;BME280;43627;42.728;23.256;2023-02-28T13:49:44;95327.97;;;9.81;100.00
57801;BME280;43627;42.728;23.256;2023-02-28T13:56:31;95298.59;;;9.67;100.00
57801;BME280;43627;42.728;23.256;2023-02-28T13:59:34;95291.78;;;9.71;100.00
57801;BME280;43627;42.728;23.256;2023-02-28T14:03:12;95417.53;;;10.41;100.00
57801;BME280;43627;42.728;23.256;2023-02-28T14:05:44;95402.34;;;10.31;100.00
57801;BME280;43627;42.728;23.256;2023-02-28T14:08:17;95309.59;;;9.63;100.00
57801;BME280;43627;42.728;23.256;2023-02-28T14:10:49;95373.91;;;10.01;100.00
57801;BME280;43627;42.728;23.256;2023-02-28T14:13:43;95411.28;;;10.32;100.00
57801;BME280;43627;42.728;23.256;2023-02-28T14:16:16;95405.91;;;10.19;100.00
57801;BME280;43627;42.728;23.256;2023-02-28T14:19:11;95345.25;;;9.56;100.00
57801;BME280;43627;42.728;23.256;2023-02-28T14:21:47;95360.56;;;9.63;100.00
57801;BME280;43627;42.728;23.256;2023-02-28T14:27:27;95359.19;;;9.58;100.00
57801;BME280;43627;42.728;23.256;2023-02-28T14:33:25;95428.03;;;9.90;100.00
57801;BME280;43627;42.728;23.256;2023-02-28T14:36:00;95437.41;;;9.89;100.00
57801;BME280;43627;42.728;23.256;2023-02-28T14:38:54;95434.31;;;9.78;100.00
57801;BME280;43627;42.728;23.256;2023-02-28T14:41:35;95374.75;;;9.36;100.00
57801;BME280;43627;42.728;23.256;2023-02-28T14:44:27;95354.13;;;9.26;100.00
57801;BME280;43627;42.728;23.256;2023-02-28T14:46:59;95414.63;;;9.73;100.00
57801;BME280;43627;42.728;23.256;2023-02-28T14:49:43;95394.25;;;9.34;100.00
57801;BME280;43627;42.728;23.256;2023-02-28T14:52:23;95392.53;;;9.28;100.00
57801;BME280;43627;42.728;23.256;2023-02-28T14:54:56;95415.19;;;9.47;100.00
57801;BME280;43627;42.728;23.256;2023-02-28T14:57:34;95425.53;;;9.52;100.00
57801;BME280;43627;42.728;23.256;2023-02-28T15:02:53;95402.34;;;9.25;100.00
57801;BME280;43627;42.728;23.256;2023-02-28T15:05:26;95415.34;;;9.43;100.00
57801;BME280;43627;42.728;23.256;2023-02-28T15:08:14;95419.06;;;9.36;100.00
57801;BME280;43627;42.728;23.256;2023-02-28T15:10:54;95426.09;;;9.25;100.00
57801;BME280;43627;42.728;23.256;2023-02-28T15:13:23;95422.28;;;9.22;100.00